createdAt,value
2023-01-06T00:04:12.684Z,161.52
2023-01-06T00:06:45.349Z,77.72
2023-01-06T00:09:17.973Z,103.85
2023-01-06T00:11:50.768Z,79.25
2023-01-06T00:14:23.204Z,98.30
2023-01-06T00:16:55.587Z,47.58
2023-01-06T00:19:28.717Z,106.22
2023-01-06T00:22:01.211Z,114.30
2023-01-06T00:24:34.271Z,98.45
2023-01-06T00:27:06.780Z,82.43
2023-01-06T00:29:39.349Z,132.63
2023-01-06T00:32:12.049Z,79.22
2023-01-06T00:34:44.828Z,77.57
2023-01-06T00:37:17.918Z,168.70
2023-01-06T00:39:50.881Z,246.68
2023-01-06T00:42:24.989Z,280.08
2023-01-06T00:44:57.643Z,176.93
2023-01-06T00:47:30.035Z,90.75
2023-01-06T00:50:03.017Z,69.50
2023-01-06T00:52:35.518Z,52.42
2023-01-06T00:55:08.675Z,128.75
2023-01-06T00:57:41.283Z,92.20
2023-01-06T01:00:14.276Z,140.13
2023-01-06T01:02:46.841Z,76.22
2023-01-06T01:05:19.415Z,203.10
2023-01-06T01:07:51.989Z,293.90
2023-01-06T01:10:24.729Z,207.30
2023-01-06T01:12:57.319Z,271.98
2023-01-06T01:15:31.933Z,160.10
2023-01-06T01:18:04.512Z,117.65
2023-01-06T01:20:37.875Z,145.63
2023-01-06T01:23:10.640Z,150.88
2023-01-06T01:25:43.324Z,239.70
2023-01-06T01:28:16.089Z,199.48
2023-01-06T01:30:49.698Z,156.52
2023-01-06T01:33:22.560Z,130.98
2023-01-06T01:35:55.035Z,164.10
2023-01-06T01:38:27.802Z,85.78
2023-01-06T01:41:00.483Z,48.03
2023-01-06T01:43:48.908Z,45.28
2023-01-06T01:46:31.849Z,42.67
2023-01-06T01:49:11.826Z,38.55
2023-01-06T01:51:47.977Z,38.15
2023-01-06T01:54:26.139Z,39.75
2023-01-06T01:57:10.456Z,42.55
2023-01-06T01:59:45.562Z,40.63
2023-01-06T02:04:55.050Z,34.60
2023-01-06T02:07:28.332Z,36.90
2023-01-06T02:10:10.584Z,36.15
2023-01-06T02:12:45.224Z,36.95
2023-01-06T02:15:28.770Z,38.58
2023-01-06T02:18:20.873Z,34.78
2023-01-06T02:21:13.873Z,34.47
2023-01-06T02:24:17.495Z,35.72
2023-01-06T02:26:59.862Z,33.45
2023-01-06T02:29:55.881Z,30.65
2023-01-06T02:32:54.590Z,31.92
2023-01-06T02:35:35.915Z,30.15
2023-01-06T02:38:15.780Z,31.48
2023-01-06T02:41:19.941Z,33.17
2023-01-06T02:44:12.759Z,29.23
2023-01-06T02:46:47.705Z,32.10
2023-01-06T02:49:38.103Z,35.17
2023-01-06T02:52:18.085Z,30.48
2023-01-06T02:54:59.878Z,33.88
2023-01-06T02:57:37.926Z,33.40
2023-01-06T03:00:23.761Z,36.90
2023-01-06T03:03:01.520Z,32.50
2023-01-06T03:05:37.309Z,33.58
2023-01-06T03:08:16.199Z,31.30
2023-01-06T03:10:51.268Z,32.80
2023-01-06T03:13:31.026Z,31.40
2023-01-06T03:16:06.084Z,31.92
2023-01-06T03:18:41.449Z,31.50
2023-01-06T03:21:19.345Z,33.55
2023-01-06T03:23:52.477Z,32.45
2023-01-06T03:26:26.673Z,31.30
2023-01-06T03:29:00.070Z,38.25
2023-01-06T03:31:37.986Z,67.15
2023-01-06T03:34:27.998Z,47.38
2023-01-06T03:37:20.371Z,86.53
2023-01-06T03:40:12.324Z,86.03
2023-01-06T03:43:09.459Z,105.53
2023-01-06T03:45:59.514Z,214.05
2023-01-06T03:48:53.880Z,231.45
2023-01-06T03:51:36.442Z,189.13
2023-01-06T03:54:26.261Z,130.98
2023-01-06T03:57:08.802Z,74.72
2023-01-06T03:59:47.422Z,118.97
2023-01-06T04:02:21.622Z,81.75
2023-01-06T04:05:02.831Z,82.18
2023-01-06T04:07:36.687Z,145.02
2023-01-06T04:10:11.034Z,89.05
2023-01-06T04:12:43.998Z,152.45
2023-01-06T04:15:24.012Z,156.13
2023-01-06T04:17:59.107Z,89.85
2023-01-06T04:20:33.018Z,89.55
2023-01-06T04:23:20.589Z,81.85
2023-01-06T04:25:53.071Z,81.00
2023-01-06T04:28:33.931Z,72.40
2023-01-06T04:31:09.206Z,75.60
2023-01-06T04:33:42.140Z,75.65
2023-01-06T04:36:17.075Z,74.57
2023-01-06T04:38:55.084Z,68.60
2023-01-06T04:41:27.608Z,72.93
2023-01-06T04:44:00.274Z,75.55
2023-01-06T04:46:32.623Z,77.18
2023-01-06T04:49:05.328Z,78.85
2023-01-06T04:51:37.817Z,73.03
2023-01-06T04:54:10.311Z,67.80
2023-01-06T04:56:42.766Z,62.05
2023-01-06T04:59:15.257Z,60.38
2023-01-06T05:01:47.642Z,56.72
2023-01-06T05:04:20.379Z,55.65
2023-01-06T05:06:52.859Z,57.70
2023-01-06T05:09:25.406Z,49.50
2023-01-06T05:11:57.888Z,48.33
2023-01-06T05:14:30.608Z,47.60
2023-01-06T05:17:03.186Z,42.70
2023-01-06T05:19:35.755Z,39.53
2023-01-06T05:22:08.467Z,34.80
2023-01-06T05:24:40.998Z,40.65
2023-01-06T05:27:13.729Z,43.75
2023-01-06T05:29:46.225Z,42.85
2023-01-06T05:32:18.815Z,42.35
2023-01-06T05:34:51.352Z,43.72
2023-01-06T05:37:23.893Z,48.95
2023-01-06T05:39:56.453Z,42.50
2023-01-06T05:42:29.107Z,40.38
2023-01-06T05:45:01.733Z,45.95
2023-01-06T05:47:34.398Z,43.42
2023-01-06T05:50:07.744Z,43.88
2023-01-06T05:52:40.257Z,47.25
2023-01-06T05:55:12.838Z,51.13
2023-01-06T05:57:45.392Z,51.58
2023-01-06T06:00:18.351Z,57.05
2023-01-06T06:02:50.858Z,63.70
2023-01-06T06:05:23.498Z,60.10
2023-01-06T06:07:56.722Z,58.70
2023-01-06T06:10:29.295Z,57.45
2023-01-06T06:13:01.708Z,55.45
2023-01-06T06:15:34.156Z,54.22
2023-01-06T06:18:06.562Z,57.55
2023-01-06T06:20:39.039Z,67.55
2023-01-06T06:23:11.469Z,51.30
2023-01-06T06:25:43.990Z,57.13
2023-01-06T06:28:16.541Z,60.00
2023-01-06T06:30:49.145Z,57.65
2023-01-06T06:33:21.849Z,63.42
2023-01-06T06:35:59.159Z,69.28
2023-01-06T06:38:32.039Z,63.38
2023-01-06T06:41:04.892Z,60.20
2023-01-06T06:43:37.542Z,64.82
2023-01-06T06:46:10.793Z,68.65
2023-01-06T06:48:43.291Z,69.93
2023-01-06T06:51:18.205Z,79.60
2023-01-06T06:53:51.185Z,86.63
2023-01-06T06:56:23.842Z,80.90
2023-01-06T06:58:56.353Z,80.45
2023-01-06T07:01:32.270Z,92.57
2023-01-06T07:04:05.016Z,89.95
2023-01-06T07:06:37.624Z,85.78
2023-01-06T07:09:10.093Z,65.97
2023-01-06T07:11:42.678Z,61.47
2023-01-06T07:14:15.104Z,74.75
2023-01-06T07:16:47.612Z,67.80
2023-01-06T07:19:20.131Z,60.65
2023-01-06T07:21:52.678Z,61.47
2023-01-06T07:24:25.424Z,69.25
2023-01-06T07:26:58.062Z,71.43
2023-01-06T07:29:30.497Z,69.82
2023-01-06T07:32:02.954Z,61.45
2023-01-06T07:34:35.510Z,69.80
2023-01-06T07:37:08.031Z,65.85
2023-01-06T07:39:40.425Z,69.95
2023-01-06T07:42:13.332Z,62.50
2023-01-06T07:44:46.011Z,70.43
2023-01-06T07:47:18.553Z,74.20
2023-01-06T07:49:51.126Z,64.07
2023-01-06T07:52:23.708Z,69.88
2023-01-06T07:54:59.799Z,68.30
2023-01-06T07:57:32.357Z,93.35
2023-01-06T08:00:05.782Z,70.10
2023-01-06T08:02:44.521Z,77.30
2023-01-06T08:05:17.217Z,68.68
2023-01-06T08:07:52.840Z,68.40
2023-01-06T08:10:25.388Z,69.43
2023-01-06T08:12:57.981Z,73.85
2023-01-06T08:15:30.587Z,69.85
2023-01-06T08:18:03.209Z,65.88
2023-01-06T08:20:36.073Z,74.28
2023-01-06T08:23:08.661Z,61.88
2023-01-06T08:25:41.180Z,70.43
2023-01-06T08:28:13.761Z,68.10
2023-01-06T08:30:46.257Z,70.82
2023-01-06T08:33:20.082Z,74.05
2023-01-06T08:35:58.937Z,66.93
2023-01-06T08:38:33.246Z,68.68
2023-01-06T08:41:05.994Z,72.20
2023-01-06T08:43:39.982Z,74.05
2023-01-06T08:46:16.250Z,85.55
2023-01-06T08:48:49.093Z,78.47
2023-01-06T08:51:24.151Z,83.07
2023-01-06T08:56:32.016Z,71.15
2023-01-06T08:59:05.525Z,80.78
2023-01-06T09:01:39.256Z,81.53
2023-01-06T09:04:12.708Z,80.13
2023-01-06T09:06:47.414Z,78.95
2023-01-06T09:09:20.064Z,78.35
2023-01-06T09:11:52.618Z,88.88
2023-01-06T09:14:25.275Z,91.18
2023-01-06T09:16:57.825Z,90.85
2023-01-06T09:19:30.457Z,69.88
2023-01-06T09:22:03.019Z,83.97
2023-01-06T09:24:35.642Z,84.88
2023-01-06T09:27:08.216Z,74.55
2023-01-06T09:29:40.763Z,87.28
2023-01-06T09:32:13.305Z,79.53
2023-01-06T09:34:46.087Z,75.88
2023-01-06T09:37:18.666Z,81.18
2023-01-06T09:39:51.282Z,77.32
2023-01-06T09:42:47.292Z,86.50
2023-01-06T09:45:24.774Z,74.60
2023-01-06T09:48:00.389Z,74.82
2023-01-06T09:50:33.765Z,78.72
2023-01-06T09:53:15.477Z,84.68
2023-01-06T09:55:52.361Z,77.88
2023-01-06T09:58:31.676Z,83.00
2023-01-06T10:01:11.599Z,86.88
2023-01-06T10:03:47.805Z,83.72
2023-01-06T10:06:38.140Z,80.82
2023-01-06T10:09:40.980Z,75.00
2023-01-06T10:12:27.713Z,85.18
2023-01-06T10:15:08.967Z,72.63
2023-01-06T10:17:57.424Z,77.90
2023-01-06T10:20:37.877Z,86.22
2023-01-06T10:23:13.980Z,80.18
2023-01-06T10:26:02.945Z,83.38
2023-01-06T10:28:42.078Z,83.05
2023-01-06T10:31:18.329Z,80.53
2023-01-06T10:33:53.551Z,78.97
2023-01-06T10:39:16.960Z,76.65
2023-01-06T10:42:22.026Z,92.88
2023-01-06T10:44:54.505Z,92.55
2023-01-06T10:47:30.883Z,84.97
2023-01-06T10:50:03.638Z,95.15
2023-01-06T10:52:36.885Z,96.43
2023-01-06T10:55:25.757Z,98.47
2023-01-06T10:58:07.047Z,97.70
2023-01-06T11:00:56.185Z,99.15
2023-01-06T11:03:34.444Z,96.25
2023-01-06T11:06:09.254Z,110.78
2023-01-06T11:08:42.067Z,109.78
2023-01-06T11:11:27.862Z,112.97
2023-01-06T11:14:05.725Z,119.13
2023-01-06T11:16:38.668Z,127.82
2023-01-06T11:19:25.106Z,119.38
2023-01-06T11:21:57.709Z,111.63
2023-01-06T11:24:30.698Z,105.40
2023-01-06T11:27:16.904Z,105.35
2023-01-06T11:29:49.781Z,116.53
2023-01-06T11:32:27.285Z,116.32
2023-01-06T11:35:02.903Z,117.13
2023-01-06T11:37:38.738Z,115.85
2023-01-06T11:40:30.507Z,120.90
2023-01-06T11:43:10.472Z,128.75
2023-01-06T11:45:48.862Z,125.22
2023-01-06T11:48:28.274Z,125.97
2023-01-06T11:51:03.758Z,128.32
2023-01-06T11:53:38.869Z,125.38
2023-01-06T11:56:14.991Z,126.28
2023-01-06T11:58:49.351Z,133.57
2023-01-06T12:01:45.165Z,133.05
2023-01-06T12:04:23.279Z,132.77
2023-01-06T12:07:05.604Z,123.35
2023-01-06T12:09:44.564Z,126.43
2023-01-06T12:12:23.627Z,131.32
2023-01-06T12:14:56.960Z,112.20
2023-01-06T12:17:55.138Z,106.75
2023-01-06T12:20:32.972Z,107.88
2023-01-06T12:23:11.142Z,106.65
2023-01-06T12:25:46.897Z,111.07
2023-01-06T12:28:29.367Z,104.55
2023-01-06T12:31:20.344Z,99.97
2023-01-06T12:33:55.853Z,108.00
2023-01-06T12:36:46.477Z,107.72
2023-01-06T12:39:30.517Z,97.25
2023-01-06T12:42:23.633Z,115.25
2023-01-06T12:45:13.628Z,110.18
2023-01-06T12:47:54.223Z,101.97
2023-01-06T12:50:41.832Z,107.57
2023-01-06T12:53:27.267Z,104.50
2023-01-06T12:56:22.196Z,97.88
2023-01-06T12:59:26.302Z,101.25
2023-01-06T13:02:22.577Z,88.25
2023-01-06T13:05:26.052Z,75.72
2023-01-06T13:08:17.505Z,86.95
2023-01-06T13:11:03.440Z,62.38
2023-01-06T13:13:44.524Z,71.85
2023-01-06T13:16:29.908Z,60.42
2023-01-06T13:19:19.669Z,57.47
2023-01-06T13:21:57.367Z,58.88
2023-01-06T13:24:54.189Z,60.13
2023-01-06T13:27:55.828Z,75.65
2023-01-06T13:30:51.973Z,64.00
2023-01-06T13:33:55.382Z,79.65
2023-01-06T13:36:45.172Z,81.85
2023-01-06T13:39:24.019Z,91.55
2023-01-06T13:42:00.707Z,91.20
2023-01-06T13:44:37.985Z,99.18
2023-01-06T13:47:18.220Z,93.82
2023-01-06T13:49:51.126Z,90.35
2023-01-06T13:52:26.516Z,80.35
2023-01-06T13:55:03.944Z,102.85
2023-01-06T13:57:39.154Z,84.18
2023-01-06T14:00:17.490Z,80.60
2023-01-06T14:02:51.281Z,100.00
2023-01-06T14:05:24.647Z,107.85
2023-01-06T14:08:01.687Z,98.63
2023-01-06T14:10:42.961Z,91.60
2023-01-06T14:13:22.606Z,100.93
2023-01-06T14:15:57.682Z,102.20
2023-01-06T14:21:11.283Z,95.05
2023-01-06T14:24:01.124Z,99.40
2023-01-06T14:26:51.384Z,104.63
2023-01-06T14:29:43.724Z,92.88
2023-01-06T14:32:18.173Z,96.45
2023-01-06T14:34:53.845Z,104.03
2023-01-06T14:37:44.864Z,102.25
2023-01-06T14:40:23.163Z,103.18
2023-01-06T14:42:59.631Z,108.13
2023-01-06T14:45:40.052Z,100.20
2023-01-06T14:48:18.349Z,95.43
2023-01-06T14:50:56.253Z,91.05
2023-01-06T14:53:48.181Z,103.30
2023-01-06T14:56:23.875Z,103.07
2023-01-06T14:59:13.519Z,97.72
2023-01-06T15:01:58.224Z,100.18
2023-01-06T15:04:33.780Z,95.50
2023-01-06T15:07:22.313Z,99.35
2023-01-06T15:10:35.552Z,97.78
2023-01-06T15:13:24.980Z,103.43
2023-01-06T15:16:24.625Z,99.55
2023-01-06T15:18:57.501Z,100.50
2023-01-06T15:21:30.269Z,111.10
2023-01-06T15:24:02.981Z,104.68
2023-01-06T15:26:35.577Z,103.07
2023-01-06T15:29:16.700Z,100.45
2023-01-06T15:31:51.261Z,102.60
2023-01-06T15:34:34.875Z,100.07
2023-01-06T15:37:14.282Z,109.03
2023-01-06T15:39:47.382Z,99.25
2023-01-06T15:42:23.817Z,108.05
2023-01-06T15:44:59.924Z,101.57
2023-01-06T15:47:33.444Z,99.43
2023-01-06T15:50:09.692Z,98.80
2023-01-06T15:52:48.823Z,102.57
2023-01-06T15:55:28.771Z,100.45
2023-01-06T15:58:07.212Z,104.55
2023-01-06T16:00:51.278Z,96.45
2023-01-06T16:03:26.984Z,103.63
2023-01-06T16:06:12.347Z,101.55
2023-01-06T16:11:39.147Z,106.78
2023-01-06T16:14:27.419Z,110.72
2023-01-06T16:17:05.867Z,99.30
2023-01-06T16:19:50.640Z,113.28
2023-01-06T16:22:31.075Z,106.70
2023-01-06T16:25:07.841Z,103.03
2023-01-06T16:27:40.674Z,107.78
2023-01-06T16:30:13.997Z,107.63
2023-01-06T16:32:47.159Z,102.43
2023-01-06T16:35:23.587Z,107.07
2023-01-06T16:37:56.744Z,104.93
2023-01-06T16:40:30.333Z,121.60
2023-01-06T16:43:03.753Z,121.88
2023-01-06T16:45:40.896Z,103.65
2023-01-06T16:48:16.072Z,127.20
2023-01-06T16:53:33.705Z,111.97
2023-01-06T16:56:15.552Z,125.97
2023-01-06T16:58:49.406Z,104.65
2023-01-06T17:01:23.817Z,116.13
2023-01-06T17:03:58.294Z,80.10
2023-01-06T17:06:32.283Z,107.75
2023-01-06T17:09:21.493Z,103.80
2023-01-06T17:11:54.469Z,110.55
2023-01-06T17:14:28.103Z,131.30
2023-01-06T17:17:03.421Z,124.97
2023-01-06T17:22:27.053Z,113.72
2023-01-06T17:25:10.117Z,118.78
2023-01-06T17:27:45.760Z,115.45
2023-01-06T17:30:20.133Z,106.32
2023-01-06T17:32:52.940Z,107.13
2023-01-06T17:35:28.411Z,111.50
2023-01-06T17:38:13.205Z,107.75
2023-01-06T17:40:45.971Z,99.72
2023-01-06T17:43:32.371Z,100.75
2023-01-06T17:46:24.297Z,102.13
2023-01-06T17:49:08.336Z,107.22
2023-01-06T17:51:41.049Z,97.05
2023-01-06T17:54:38.847Z,92.28
2023-01-06T17:57:15.919Z,91.95
2023-01-06T17:59:53.514Z,86.82
2023-01-06T18:02:42.982Z,112.05
2023-01-06T18:05:33.823Z,106.65
2023-01-06T18:08:07.654Z,97.93
2023-01-06T18:10:44.892Z,106.53
2023-01-06T18:13:28.760Z,100.53
2023-01-06T18:16:02.364Z,94.38
2023-01-06T18:18:38.617Z,100.35
2023-01-06T18:21:26.744Z,96.45
2023-01-06T18:23:59.403Z,97.60
2023-01-06T18:26:41.192Z,91.57
2023-01-06T18:29:16.416Z,98.28
2023-01-06T18:34:25.080Z,88.53
2023-01-06T18:37:01.493Z,87.90
2023-01-06T18:39:50.625Z,93.45
2023-01-06T18:42:28.459Z,97.68
2023-01-06T18:45:25.371Z,92.85
2023-01-06T18:48:02.560Z,85.45
2023-01-06T18:50:41.901Z,84.03
2023-01-06T18:53:19.733Z,81.25
2023-01-06T18:55:55.335Z,91.60
2023-01-06T18:58:42.604Z,85.13
2023-01-06T19:01:20.412Z,84.28
2023-01-06T19:04:09.664Z,84.82
2023-01-06T19:06:50.346Z,85.55
2023-01-06T19:09:35.093Z,88.72
2023-01-06T19:12:09.187Z,78.50
2023-01-06T19:14:45.996Z,88.15
2023-01-06T19:17:30.832Z,81.60
2023-01-06T19:20:21.806Z,89.05
2023-01-06T19:22:55.481Z,85.97
2023-01-06T19:25:48.854Z,86.68
2023-01-06T19:28:25.960Z,92.88
2023-01-06T19:30:59.765Z,93.05
2023-01-06T19:33:37.533Z,86.93
2023-01-06T19:36:13.770Z,88.72
2023-01-06T19:38:46.283Z,82.28
2023-01-06T19:41:28.790Z,85.00
2023-01-06T19:44:12.280Z,90.38
2023-01-06T19:46:47.916Z,92.38
2023-01-06T19:49:23.988Z,90.80
2023-01-06T19:51:57.204Z,87.32
2023-01-06T19:54:34.989Z,92.20
2023-01-06T19:57:26.410Z,105.18
2023-01-06T20:00:01.920Z,107.80
2023-01-06T20:02:47.009Z,94.68
2023-01-06T20:05:19.584Z,93.35
2023-01-06T20:07:53.352Z,97.60
2023-01-06T20:10:25.974Z,101.97
2023-01-06T20:12:58.645Z,98.43
2023-01-06T20:15:31.340Z,103.63
2023-01-06T20:18:04.553Z,106.75
2023-01-06T20:20:37.696Z,108.40
2023-01-06T20:23:11.415Z,101.40
2023-01-06T20:25:44.557Z,107.60
2023-01-06T20:28:17.523Z,110.13
2023-01-06T20:30:50.635Z,140.23
2023-01-06T20:33:23.627Z,121.80
2023-01-06T20:35:56.344Z,114.40
2023-01-06T20:38:29.057Z,115.38
2023-01-06T20:41:01.646Z,115.75
2023-01-06T20:43:34.341Z,115.47
2023-01-06T20:46:06.948Z,113.20
2023-01-06T20:48:40.135Z,123.75
2023-01-06T20:51:12.631Z,114.75
2023-01-06T20:53:45.492Z,117.80
2023-01-06T20:56:18.236Z,117.32
2023-01-06T20:58:50.876Z,110.22
2023-01-06T21:01:23.694Z,101.85
2023-01-06T21:03:57.324Z,112.72
2023-01-06T21:06:30.996Z,111.18
2023-01-06T21:09:03.807Z,106.88
2023-01-06T21:11:36.442Z,104.55
2023-01-06T21:14:09.129Z,106.03
2023-01-06T21:16:42.018Z,106.07
2023-01-06T21:19:15.373Z,113.28
2023-01-06T21:21:48.643Z,108.18
2023-01-06T21:24:21.384Z,108.70
2023-01-06T21:26:53.885Z,113.45
2023-01-06T21:29:26.644Z,109.90
2023-01-06T21:31:59.720Z,99.25
2023-01-06T21:34:32.607Z,116.00
2023-01-06T21:37:05.450Z,97.45
2023-01-06T21:39:39.230Z,105.57
2023-01-06T21:42:27.171Z,102.55
2023-01-06T21:45:00.129Z,108.43
2023-01-06T21:47:32.673Z,101.80
2023-01-06T21:50:06.149Z,92.18
2023-01-06T21:52:38.989Z,88.72
2023-01-06T21:55:11.825Z,109.13
2023-01-06T21:57:44.617Z,107.18
2023-01-06T22:00:17.491Z,104.13
2023-01-06T22:02:53.531Z,102.10
2023-01-06T22:05:26.117Z,102.53
2023-01-06T22:07:58.698Z,102.85
2023-01-06T22:10:31.608Z,102.38
2023-01-06T22:13:04.298Z,93.47
2023-01-06T22:15:37.804Z,102.13
2023-01-06T22:18:10.812Z,95.30
2023-01-06T22:20:44.319Z,87.78
2023-01-06T22:23:21.208Z,89.43
2023-01-06T22:25:53.977Z,78.95
2023-01-06T22:28:27.977Z,67.70
2023-01-06T22:31:00.677Z,72.25
2023-01-06T22:33:33.286Z,63.00
2023-01-06T22:36:06.429Z,56.78
2023-01-06T22:38:38.995Z,59.10
2023-01-06T22:41:12.780Z,57.80
2023-01-06T22:43:45.227Z,57.50
2023-01-06T22:46:18.750Z,59.30
2023-01-06T22:48:51.405Z,59.45
2023-01-06T22:51:23.969Z,53.17
2023-01-06T22:53:57.257Z,54.67
2023-01-06T22:56:29.913Z,56.55
2023-01-06T22:59:02.850Z,58.15
2023-01-06T23:01:36.981Z,53.47
2023-01-06T23:04:10.197Z,55.35
2023-01-06T23:06:42.915Z,54.50
2023-01-06T23:09:15.832Z,50.92
2023-01-06T23:11:49.412Z,51.97
2023-01-06T23:14:22.968Z,52.92
2023-01-06T23:16:55.581Z,54.63
2023-01-06T23:19:28.038Z,54.83
2023-01-06T23:22:00.774Z,50.10
2023-01-06T23:24:33.507Z,57.03
2023-01-06T23:27:06.305Z,52.90
2023-01-06T23:29:38.896Z,59.17
2023-01-06T23:32:11.401Z,57.75
2023-01-06T23:34:43.882Z,61.38
2023-01-06T23:37:16.531Z,61.72
2023-01-06T23:39:49.191Z,59.47
2023-01-06T23:42:21.935Z,59.97
2023-01-06T23:44:54.427Z,61.90
2023-01-06T23:47:27.156Z,56.92
2023-01-06T23:49:59.785Z,60.50
2023-01-06T23:52:32.682Z,57.70
2023-01-06T23:55:05.843Z,63.92
2023-01-06T23:57:38.501Z,61.72
